Time;durP1;ratioP1;P1;durP2;ratioP2;P2;SDS_P1;SDS_P2;PMS_P1;PMS_P2;Temp;Humidity;BMP_temperature;BMP_pressure;BME280_temperature;BME280_humidity;BME280_pressure;Samples;Min_cycle;Max_cycle;Signal;HPM_P1;HPM_P2
2023/03/18 00:01:10;;;;;;;17.02;10.05;;;;;;;;;;5055457;28;20120;-74
2023/03/18 00:03:37;;;;;;;16.10;9.80;;;;;;;;;;5043659;28;20076;-75
2023/03/18 00:06:07;;;;;;;13.98;8.90;;;;;;;;;;5018994;28;20082;-74
2023/03/18 00:08:34;;;;;;;13.63;9.55;;;;;;;;;;5054208;28;20064;-75
2023/03/18 00:11:01;;;;;;;17.65;9.48;;;;;;;;;;5055320;28;20053;-75
2023/03/18 00:13:27;;;;;;;14.93;8.95;;;;;;;;;;5073250;28;20040;-75
2023/03/18 00:15:53;;;;;;;15.15;9.05;;;;;;;;;;5073315;28;20044;-75
2023/03/18 00:18:19;;;;;;;16.10;9.20;;;;;;;;;;5055019;28;20048;-75
2023/03/18 00:20:46;;;;;;;18.08;8.98;;;;;;;;;;5036105;28;20428;-75
2023/03/18 00:23:12;;;;;;;14.85;9.25;;;;;;;;;;5052966;28;20044;-75
2023/03/18 00:25:39;;;;;;;15.10;9.38;;;;;;;;;;5018748;28;20033;-75
2023/03/18 00:28:05;;;;;;;15.93;8.82;;;;;;;;;;5033854;28;20055;-75
2023/03/18 00:30:32;;;;;;;14.95;8.80;;;;;;;;;;5032749;28;20390;-75
2023/03/18 00:32:58;;;;;;;12.93;8.52;;;;;;;;;;5052929;28;20133;-75
2023/03/18 00:35:29;;;;;;;12.00;8.88;;;;;;;;;;5070705;28;20080;-75
2023/03/18 00:37:56;;;;;;;20.27;9.27;;;;;;;;;;5062272;28;20049;-74
2023/03/18 00:40:28;;;;;;;13.63;9.15;;;;;;;;;;5052743;28;20056;-74
2023/03/18 00:43:06;;;;;;;15.82;8.65;;;;;;;;;;5052560;28;20045;-75
2023/03/18 00:45:32;;;;;;;13.48;8.63;;;;;;;;;;5052633;28;20088;-75
2023/03/18 00:47:58;;;;;;;13.80;8.98;;;;;;;;;;5052596;28;20498;-75
2023/03/18 00:50:24;;;;;;;12.38;8.85;;;;;;;;;;5033714;28;20154;-74
2023/03/18 00:52:50;;;;;;;12.63;8.75;;;;;;;;;;5034277;28;20087;-75
2023/03/18 00:55:16;;;;;;;15.60;9.38;;;;;;;;;;5062965;28;20063;-74
2023/03/18 00:57:43;;;;;;;13.63;9.23;;;;;;;;;;5048840;28;20048;-74
2023/03/18 01:00:10;;;;;;;15.82;8.98;;;;;;;;;;5035533;28;20045;-74
2023/03/18 01:02:36;;;;;;;14.98;9.45;;;;;;;;;;5052399;28;20059;-75
2023/03/18 01:05:02;;;;;;;15.20;10.20;;;;;;;;;;5051591;28;20106;-75
2023/03/18 01:07:29;;;;;;;16.77;9.73;;;;;;;;;;5052757;28;20055;-74
2023/03/18 01:09:55;;;;;;;14.75;10.30;;;;;;;;;;5062963;28;20055;-74
2023/03/18 01:12:21;;;;;;;15.50;10.02;;;;;;;;;;5052361;28;20041;-74
2023/03/18 01:14:48;;;;;;;15.45;10.48;;;;;;;;;;5066221;28;20049;-75
2023/03/18 01:17:14;;;;;;;14.93;10.45;;;;;;;;;;5054389;28;20098;-74
2023/03/18 01:19:41;;;;;;;15.88;10.70;;;;;;;;;;5054122;28;20419;-75
2023/03/18 01:22:07;;;;;;;16.58;11.13;;;;;;;;;;5071440;28;20066;-75
2023/03/18 01:24:34;;;;;;;18.17;11.23;;;;;;;;;;5053735;28;20504;-74
2023/03/18 01:27:01;;;;;;;15.38;11.38;;;;;;;;;;5057824;28;20107;-74
2023/03/18 01:29:27;;;;;;;17.00;11.80;;;;;;;;;;5015303;28;20052;-74
2023/03/18 01:31:53;;;;;;;16.88;11.75;;;;;;;;;;5052111;28;20041;-74
2023/03/18 01:34:22;;;;;;;18.02;12.32;;;;;;;;;;5033931;28;20056;-74
2023/03/18 01:36:48;;;;;;;19.65;12.45;;;;;;;;;;5017693;28;20044;-74
2023/03/18 01:39:16;;;;;;;17.90;13.52;;;;;;;;;;5051772;28;20167;-74
2023/03/18 01:41:43;;;;;;;21.98;13.70;;;;;;;;;;5052124;28;20045;-74
2023/03/18 01:44:14;;;;;;;18.42;13.40;;;;;;;;;;5032688;28;20056;-75
2023/03/18 01:46:43;;;;;;;17.90;13.63;;;;;;;;;;5055692;28;20196;-75
2023/03/18 01:49:24;;;;;;;19.23;14.15;;;;;;;;;;5074674;28;20040;-75
2023/03/18 01:51:59;;;;;;;19.83;14.77;;;;;;;;;;5056720;28;20070;-74
2023/03/18 01:54:26;;;;;;;19.50;14.95;;;;;;;;;;5037923;28;20405;-74
2023/03/18 01:56:52;;;;;;;21.42;16.13;;;;;;;;;;5056177;28;20451;-75
2023/03/18 01:59:20;;;;;;;21.85;16.15;;;;;;;;;;5055574;28;20143;-74
2023/03/18 02:01:52;;;;;;;22.23;15.07;;;;;;;;;;5071611;28;20047;-74
2023/03/18 02:04:20;;;;;;;24.25;16.20;;;;;;;;;;5057523;28;20049;-74
2023/03/18 02:06:46;;;;;;;23.33;16.35;;;;;;;;;;5067708;28;20057;-74
2023/03/18 02:09:12;;;;;;;23.00;16.13;;;;;;;;;;5064468;28;20062;-75
2023/03/18 02:11:41;;;;;;;27.20;17.63;;;;;;;;;;5035772;28;20117;-74
2023/03/18 02:14:09;;;;;;;29.20;18.10;;;;;;;;;;5068066;28;20055;-75
2023/03/18 02:16:44;;;;;;;23.55;18.23;;;;;;;;;;5057757;28;20075;-75
2023/03/18 02:19:18;;;;;;;24.85;18.88;;;;;;;;;;5055105;28;20052;-75
2023/03/18 02:21:55;;;;;;;25.73;19.33;;;;;;;;;;5037562;28;20057;-75
2023/03/18 02:24:27;;;;;;;28.52;20.25;;;;;;;;;;5074214;28;20037;-75
2023/03/18 02:26:59;;;;;;;26.25;19.98;;;;;;;;;;5075655;28;20367;-75
2023/03/18 02:29:27;;;;;;;25.83;19.38;;;;;;;;;;5074883;28;20045;-74
2023/03/18 02:31:55;;;;;;;32.65;21.90;;;;;;;;;;5071166;28;20427;-76
2023/03/18 02:34:22;;;;;;;28.23;21.00;;;;;;;;;;5066330;28;20123;-74
2023/03/18 02:36:48;;;;;;;28.75;20.92;;;;;;;;;;5039552;28;20044;-74
2023/03/18 02:39:15;;;;;;;26.52;21.20;;;;;;;;;;5072952;28;20053;-74
2023/03/18 02:41:41;;;;;;;28.77;23.08;;;;;;;;;;5057079;28;20094;-75
2023/03/18 02:44:07;;;;;;;27.58;21.25;;;;;;;;;;5056581;28;20106;-74
2023/03/18 02:46:38;;;;;;;28.90;21.58;;;;;;;;;;5057025;28;20072;-74
2023/03/18 02:49:06;;;;;;;30.65;23.25;;;;;;;;;;5056461;28;20580;-75
2023/03/18 02:51:33;;;;;;;32.85;23.80;;;;;;;;;;5037253;28;20049;-74
2023/03/18 02:54:20;;;;;;;30.73;23.25;;;;;;;;;;5052943;28;20059;-74
2023/03/18 02:56:46;;;;;;;29.40;23.33;;;;;;;;;;5054925;28;20041;-74
2023/03/18 02:59:12;;;;;;;31.08;23.42;;;;;;;;;;5053402;28;20055;-74
2023/03/18 03:01:39;;;;;;;31.67;25.05;;;;;;;;;;5039502;28;20080;-74
2023/03/18 03:04:06;;;;;;;31.77;25.00;;;;;;;;;;5049023;28;20049;-74
2023/03/18 03:06:33;;;;;;;33.65;25.67;;;;;;;;;;5036698;28;20144;-74
2023/03/18 03:08:59;;;;;;;35.47;25.80;;;;;;;;;;5041577;28;20060;-75
2023/03/18 03:11:26;;;;;;;39.03;27.55;;;;;;;;;;5074302;28;20097;-75
2023/03/18 03:13:52;;;;;;;31.42;26.27;;;;;;;;;;5036584;28;20143;-74
2023/03/18 03:16:18;;;;;;;33.50;27.50;;;;;;;;;;5064842;28;20452;-75
2023/03/18 03:18:45;;;;;;;32.80;25.92;;;;;;;;;;5048285;28;20354;-74
2023/03/18 03:21:12;;;;;;;37.30;26.92;;;;;;;;;;5039931;28;20052;-75
2023/03/18 03:23:38;;;;;;;34.90;26.77;;;;;;;;;;5039059;28;20048;-75
2023/03/18 03:26:05;;;;;;;33.42;26.52;;;;;;;;;;5056291;28;20397;-74
2023/03/18 03:28:31;;;;;;;34.75;27.52;;;;;;;;;;5055626;28;20165;-75
2023/03/18 03:30:58;;;;;;;35.60;27.83;;;;;;;;;;5073975;28;20040;-74
2023/03/18 03:33:26;;;;;;;34.83;27.15;;;;;;;;;;5055398;28;20398;-74
2023/03/18 03:35:52;;;;;;;36.88;27.33;;;;;;;;;;5053995;28;20040;-74
2023/03/18 03:38:19;;;;;;;37.47;28.92;;;;;;;;;;5060215;28;20045;-74
2023/03/18 03:40:46;;;;;;;34.75;26.80;;;;;;;;;;5054889;28;20137;-75
2023/03/18 03:43:13;;;;;;;35.33;27.42;;;;;;;;;;5037908;28;20075;-75
2023/03/18 03:45:39;;;;;;;39.67;27.42;;;;;;;;;;5073950;28;20040;-74
2023/03/18 03:48:05;;;;;;;35.95;27.92;;;;;;;;;;5072974;28;20503;-74
2023/03/18 03:50:31;;;;;;;34.28;27.38;;;;;;;;;;5073343;28;20055;-75
2023/03/18 03:52:57;;;;;;;34.88;27.23;;;;;;;;;;5055155;28;20127;-75
2023/03/18 03:55:24;;;;;;;37.65;28.17;;;;;;;;;;5053915;28;20076;-74
2023/03/18 03:57:50;;;;;;;36.90;28.70;;;;;;;;;;5072896;28;20400;-74
2023/03/18 04:00:20;;;;;;;35.65;27.10;;;;;;;;;;5072655;28;20101;-75
2023/03/18 04:02:47;;;;;;;35.03;27.25;;;;;;;;;;5054795;28;20051;-74
2023/03/18 04:05:15;;;;;;;34.40;26.23;;;;;;;;;;5072334;28;20106;-75
2023/03/18 04:07:41;;;;;;;34.25;27.02;;;;;;;;;;5053753;28;20049;-74
2023/03/18 04:10:09;;;;;;;36.55;27.60;;;;;;;;;;5044122;28;20374;-74
2023/03/18 04:12:35;;;;;;;37.53;27.88;;;;;;;;;;5046777;28;20051;-75
2023/03/18 04:15:02;;;;;;;33.17;27.27;;;;;;;;;;5053256;28;20067;-74
2023/03/18 04:17:28;;;;;;;35.83;27.92;;;;;;;;;;5060863;28;20047;-74
2023/03/18 04:19:54;;;;;;;37.22;27.00;;;;;;;;;;5073106;28;20106;-75
2023/03/18 04:22:20;;;;;;;33.90;27.20;;;;;;;;;;5072113;28;20083;-75
2023/03/18 04:24:46;;;;;;;37.35;27.60;;;;;;;;;;5054482;28;20044;-75
2023/03/18 04:27:12;;;;;;;34.58;26.20;;;;;;;;;;5073119;28;20036;-74
2023/03/18 04:29:38;;;;;;;34.35;25.60;;;;;;;;;;5046955;28;20041;-75
2023/03/18 04:32:04;;;;;;;35.97;26.63;;;;;;;;;;5053159;28;20064;-74
2023/03/18 04:34:31;;;;;;;33.65;26.05;;;;;;;;;;5034797;28;20056;-74
2023/03/18 04:36:57;;;;;;;35.10;26.55;;;;;;;;;;5052833;28;20055;-75
2023/03/18 04:39:23;;;;;;;34.78;26.25;;;;;;;;;;5052348;28;20092;-74
2023/03/18 04:41:49;;;;;;;34.10;25.85;;;;;;;;;;5052587;28;20044;-75
2023/03/18 04:44:16;;;;;;;33.60;25.25;;;;;;;;;;5034652;28;20057;-74
2023/03/18 04:46:42;;;;;;;32.40;25.45;;;;;;;;;;5053034;28;20371;-74
2023/03/18 04:49:09;;;;;;;33.60;26.25;;;;;;;;;;5034674;28;20081;-74
2023/03/18 04:51:36;;;;;;;32.40;25.80;;;;;;;;;;5052823;28;20080;-75
2023/03/18 04:54:02;;;;;;;35.75;25.60;;;;;;;;;;5017847;28;20052;-75
2023/03/18 04:56:30;;;;;;;35.47;25.52;;;;;;;;;;5034924;28;20394;-74
2023/03/18 04:58:56;;;;;;;34.75;24.08;;;;;;;;;;5052181;28;20049;-74
2023/03/18 05:01:22;;;;;;;33.35;25.00;;;;;;;;;;5035066;28;20394;-75
2023/03/18 05:03:49;;;;;;;38.17;24.23;;;;;;;;;;5034321;28;20040;-74
2023/03/18 05:06:22;;;;;;;35.63;24.70;;;;;;;;;;5052474;28;20045;-74
2023/03/18 05:08:48;;;;;;;34.00;23.73;;;;;;;;;;5037698;28;20494;-75
2023/03/18 05:11:14;;;;;;;33.47;23.73;;;;;;;;;;5055881;28;20059;-74
2023/03/18 05:13:40;;;;;;;32.75;24.73;;;;;;;;;;5071731;28;20092;-74
2023/03/18 05:16:08;;;;;;;31.85;24.13;;;;;;;;;;5072136;28;20087;-75
2023/03/18 05:18:35;;;;;;;30.20;22.83;;;;;;;;;;5048074;28;20048;-74
2023/03/18 05:21:01;;;;;;;34.03;24.63;;;;;;;;;;5052127;28;20048;-74
2023/03/18 05:23:28;;;;;;;33.10;24.10;;;;;;;;;;5053946;28;20055;-74
2023/03/18 05:25:54;;;;;;;36.20;25.02;;;;;;;;;;5077318;28;20044;-75
2023/03/18 05:28:20;;;;;;;31.92;23.27;;;;;;;;;;5060480;28;20055;-74
2023/03/18 05:30:47;;;;;;;34.05;25.65;;;;;;;;;;5044168;28;20102;-74
2023/03/18 05:33:13;;;;;;;31.83;24.52;;;;;;;;;;5076534;28;20048;-74
2023/03/18 05:35:40;;;;;;;33.67;24.35;;;;;;;;;;5058634;28;20481;-74
2023/03/18 05:38:06;;;;;;;34.20;25.35;;;;;;;;;;5048922;28;20404;-74
2023/03/18 05:40:33;;;;;;;32.63;24.25;;;;;;;;;;5059882;28;20399;-74
2023/03/18 05:42:59;;;;;;;35.33;23.85;;;;;;;;;;5024592;28;20045;-74
2023/03/18 05:45:25;;;;;;;36.10;24.50;;;;;;;;;;5038212;28;20049;-74
2023/03/18 05:47:51;;;;;;;34.40;24.52;;;;;;;;;;5040609;28;20040;-74
2023/03/18 05:50:27;;;;;;;36.80;23.92;;;;;;;;;;5041952;28;20122;-75
2023/03/18 05:52:53;;;;;;;35.15;24.30;;;;;;;;;;5040660;28;20054;-75
2023/03/18 05:55:19;;;;;;;35.65;24.38;;;;;;;;;;5041019;28;20149;-74
2023/03/18 05:57:47;;;;;;;32.25;24.10;;;;;;;;;;5040576;28;20509;-74
2023/03/18 06:00:14;;;;;;;39.50;25.00;;;;;;;;;;5040690;28;20460;-74
2023/03/18 06:02:40;;;;;;;36.67;23.83;;;;;;;;;;5049051;28;20041;-74
2023/03/18 06:05:07;;;;;;;40.35;25.95;;;;;;;;;;5058081;28;20120;-74
2023/03/18 06:07:34;;;;;;;38.88;24.00;;;;;;;;;;5058713;28;20134;-74
2023/03/18 06:10:00;;;;;;;40.88;25.55;;;;;;;;;;5069573;28;20088;-74
2023/03/18 06:12:27;;;;;;;41.58;26.60;;;;;;;;;;5055588;28;20072;-74
2023/03/18 06:14:55;;;;;;;42.15;27.58;;;;;;;;;;5028160;28;20048;-74
2023/03/18 06:17:21;;;;;;;45.10;28.13;;;;;;;;;;5059947;28;20079;-74
2023/03/18 06:19:48;;;;;;;43.22;27.45;;;;;;;;;;5078128;28;20127;-74
2023/03/18 06:22:15;;;;;;;45.67;28.75;;;;;;;;;;5078273;28;20048;-74
2023/03/18 06:24:42;;;;;;;44.50;28.63;;;;;;;;;;5063925;28;20045;-74
2023/03/18 06:27:08;;;;;;;42.80;27.27;;;;;;;;;;5040200;28;20076;-74
2023/03/18 06:29:34;;;;;;;42.38;27.02;;;;;;;;;;5040037;28;20049;-74
2023/03/18 06:32:00;;;;;;;48.20;28.27;;;;;;;;;;5058324;28;20167;-76
2023/03/18 06:34:26;;;;;;;44.50;26.17;;;;;;;;;;5048490;28;20048;-73
2023/03/18 06:36:52;;;;;;;44.67;27.98;;;;;;;;;;5056936;28;20037;-72
2023/03/18 06:39:18;;;;;;;44.00;28.55;;;;;;;;;;5070237;28;20058;-72
2023/03/18 06:41:45;;;;;;;46.47;29.25;;;;;;;;;;5064833;28;20143;-73
2023/03/18 06:44:12;;;;;;;47.08;28.92;;;;;;;;;;5071846;28;20048;-73
2023/03/18 06:46:38;;;;;;;47.08;29.92;;;;;;;;;;5069123;28;20116;-73
2023/03/18 06:49:04;;;;;;;39.78;27.70;;;;;;;;;;5063576;28;20078;-73
2023/03/18 06:51:31;;;;;;;40.45;27.27;;;;;;;;;;5056881;28;20041;-73
2023/03/18 06:53:57;;;;;;;40.55;28.05;;;;;;;;;;5040769;28;20045;-73
2023/03/18 06:56:24;;;;;;;44.92;29.52;;;;;;;;;;5054667;28;20336;-73
2023/03/18 06:58:50;;;;;;;38.83;26.40;;;;;;;;;;5036906;28;20435;-73
2023/03/18 07:01:18;;;;;;;40.33;27.27;;;;;;;;;;5037077;28;20051;-73
2023/03/18 07:03:44;;;;;;;40.15;28.08;;;;;;;;;;5054385;28;20055;-72
2023/03/18 07:06:10;;;;;;;39.92;28.05;;;;;;;;;;5036561;28;20048;-73
2023/03/18 07:08:37;;;;;;;38.28;26.40;;;;;;;;;;5052573;28;20061;-74
2023/03/18 07:11:03;;;;;;;38.22;25.65;;;;;;;;;;5054422;28;20382;-73
2023/03/18 07:13:29;;;;;;;36.67;26.13;;;;;;;;;;5053606;28;20496;-74
2023/03/18 07:15:55;;;;;;;35.13;24.70;;;;;;;;;;5056456;28;20044;-74
2023/03/18 07:18:22;;;;;;;33.13;23.23;;;;;;;;;;5056000;28;20041;-73
2023/03/18 07:20:49;;;;;;;34.45;23.30;;;;;;;;;;5037682;28;20040;-74
2023/03/18 07:23:15;;;;;;;32.30;22.70;;;;;;;;;;5066194;28;20049;-74
2023/03/18 07:25:41;;;;;;;30.60;21.52;;;;;;;;;;5054344;28;20048;-73
2023/03/18 07:28:08;;;;;;;29.55;21.73;;;;;;;;;;5053939;28;20460;-74
2023/03/18 07:30:34;;;;;;;33.33;22.40;;;;;;;;;;5036034;28;20049;-73
2023/03/18 07:33:01;;;;;;;28.73;22.02;;;;;;;;;;5053599;28;20049;-74
2023/03/18 07:35:27;;;;;;;27.83;21.25;;;;;;;;;;5018194;28;20048;-74
2023/03/18 07:37:53;;;;;;;32.78;22.67;;;;;;;;;;5054640;28;20084;-74
2023/03/18 07:40:19;;;;;;;35.35;22.42;;;;;;;;;;5053548;28;20079;-74
2023/03/18 07:42:45;;;;;;;33.67;22.88;;;;;;;;;;5053747;28;20053;-74
2023/03/18 07:45:11;;;;;;;31.70;23.38;;;;;;;;;;5053736;28;20362;-74
2023/03/18 07:47:38;;;;;;;35.97;24.92;;;;;;;;;;5019197;28;20087;-73
2023/03/18 07:50:04;;;;;;;31.58;23.73;;;;;;;;;;5052958;28;20041;-74
2023/03/18 07:52:31;;;;;;;31.92;24.23;;;;;;;;;;5035831;28;20067;-73
2023/03/18 07:54:57;;;;;;;34.90;24.73;;;;;;;;;;5035379;28;20040;-74
2023/03/18 07:57:23;;;;;;;34.08;23.60;;;;;;;;;;5042877;28;20048;-74
2023/03/18 07:59:49;;;;;;;33.40;24.02;;;;;;;;;;5071840;28;20063;-73
2023/03/18 08:02:15;;;;;;;35.63;23.75;;;;;;;;;;5054079;28;20044;-73
2023/03/18 08:04:42;;;;;;;34.13;23.35;;;;;;;;;;5053208;28;20049;-73
2023/03/18 08:07:09;;;;;;;31.77;22.90;;;;;;;;;;5053598;28;20048;-74
2023/03/18 08:09:35;;;;;;;32.17;23.65;;;;;;;;;;5052837;28;20056;-74
2023/03/18 08:12:01;;;;;;;33.65;23.90;;;;;;;;;;5053365;28;20057;-74
2023/03/18 08:14:27;;;;;;;31.80;23.92;;;;;;;;;;5052696;28;20442;-74
2023/03/18 08:16:53;;;;;;;32.38;23.65;;;;;;;;;;5018757;28;20095;-73
2023/03/18 08:19:20;;;;;;;30.83;23.67;;;;;;;;;;5036034;28;20044;-74
2023/03/18 08:21:46;;;;;;;29.92;24.50;;;;;;;;;;5034536;28;20053;-74
2023/03/18 08:24:13;;;;;;;30.85;23.55;;;;;;;;;;5035840;28;20465;-74
2023/03/18 08:26:39;;;;;;;36.30;23.45;;;;;;;;;;5059863;28;20048;-74
2023/03/18 08:29:05;;;;;;;33.30;24.02;;;;;;;;;;5067699;28;20050;-73
2023/03/18 08:31:31;;;;;;;29.73;23.20;;;;;;;;;;5067318;28;20060;-74
2023/03/18 08:33:58;;;;;;;33.05;22.55;;;;;;;;;;5054339;28;20210;-74
2023/03/18 08:36:26;;;;;;;27.20;22.17;;;;;;;;;;5072967;28;20048;-73
2023/03/18 08:38:52;;;;;;;30.45;22.67;;;;;;;;;;5072136;28;20123;-72
2023/03/18 08:41:18;;;;;;;31.98;22.35;;;;;;;;;;5072425;28;20037;-73
2023/03/18 08:43:44;;;;;;;30.13;23.05;;;;;;;;;;5072270;28;20412;-73
2023/03/18 08:46:10;;;;;;;33.25;24.25;;;;;;;;;;5072546;28;20040;-72
2023/03/18 08:48:36;;;;;;;32.17;22.70;;;;;;;;;;5037825;28;20051;-73
2023/03/18 08:51:03;;;;;;;29.45;22.30;;;;;;;;;;5072619;28;20072;-73
2023/03/18 08:53:30;;;;;;;30.92;23.88;;;;;;;;;;5053223;28;20052;-73
2023/03/18 08:55:56;;;;;;;31.88;22.75;;;;;;;;;;5072108;28;20119;-72
2023/03/18 08:58:22;;;;;;;34.63;22.75;;;;;;;;;;5053503;28;20131;-73
2023/03/18 09:00:49;;;;;;;31.58;24.02;;;;;;;;;;5072211;28;20050;-72
2023/03/18 09:03:15;;;;;;;31.98;23.45;;;;;;;;;;5037121;28;20459;-72
2023/03/18 09:05:42;;;;;;;30.50;23.98;;;;;;;;;;5071423;28;20044;-72
2023/03/18 09:08:08;;;;;;;31.23;23.55;;;;;;;;;;5071735;28;20044;-72
2023/03/18 09:10:34;;;;;;;28.85;22.80;;;;;;;;;;5072184;28;20084;-75
2023/03/18 09:13:00;;;;;;;33.08;23.73;;;;;;;;;;5054023;28;20044;-72
2023/03/18 09:15:26;;;;;;;32.03;23.65;;;;;;;;;;5054111;28;20068;-72
2023/03/18 09:17:53;;;;;;;30.67;23.52;;;;;;;;;;5037615;28;20117;-72
2023/03/18 09:20:19;;;;;;;31.67;23.85;;;;;;;;;;5054233;28;20115;-72
2023/03/18 09:22:46;;;;;;;32.67;22.40;;;;;;;;;;5053706;28;20146;-72
2023/03/18 09:25:12;;;;;;;29.67;23.23;;;;;;;;;;5054039;28;20040;-72
2023/03/18 09:27:38;;;;;;;29.92;21.70;;;;;;;;;;5072092;28;20501;-72
2023/03/18 09:30:05;;;;;;;32.45;23.17;;;;;;;;;;5071868;28;20052;-72
2023/03/18 09:32:31;;;;;;;28.67;22.60;;;;;;;;;;5054020;28;20050;-72
2023/03/18 09:34:58;;;;;;;30.05;22.02;;;;;;;;;;5072134;28;20041;-72
2023/03/18 09:37:24;;;;;;;30.23;22.60;;;;;;;;;;5066006;28;20052;-72
2023/03/18 09:39:50;;;;;;;31.17;21.63;;;;;;;;;;5050334;28;20393;-72
2023/03/18 09:42:30;;;;;;;28.60;22.10;;;;;;;;;;5048808;28;20041;-73
2023/03/18 09:45:01;;;;;;;30.30;21.48;;;;;;;;;;5029986;28;20474;-73
2023/03/18 09:47:36;;;;;;;26.33;20.50;;;;;;;;;;5050066;28;20037;-73
2023/03/18 09:50:02;;;;;;;28.17;22.02;;;;;;;;;;5032166;28;20048;-73
2023/03/18 09:52:31;;;;;;;32.13;21.63;;;;;;;;;;5049811;28;20120;-73
2023/03/18 09:54:57;;;;;;;31.23;20.58;;;;;;;;;;5031877;28;20045;-73
2023/03/18 09:57:29;;;;;;;24.60;19.73;;;;;;;;;;5032763;28;20079;-73
2023/03/18 10:00:01;;;;;;;26.83;19.85;;;;;;;;;;5034062;28;20374;-73
2023/03/18 10:02:36;;;;;;;25.33;18.70;;;;;;;;;;5033650;28;20052;-73
2023/03/18 10:05:05;;;;;;;24.88;19.73;;;;;;;;;;5017681;28;20088;-73
2023/03/18 10:07:34;;;;;;;23.35;18.63;;;;;;;;;;5034032;28;20474;-73
2023/03/18 10:10:03;;;;;;;23.08;18.58;;;;;;;;;;5053787;28;20404;-73
2023/03/18 10:12:34;;;;;;;22.52;17.48;;;;;;;;;;5055502;28;20048;-73
2023/03/18 10:15:16;;;;;;;23.50;17.70;;;;;;;;;;5039082;28;20049;-74
2023/03/18 10:17:48;;;;;;;23.00;17.08;;;;;;;;;;5048781;28;20040;-74
2023/03/18 10:20:14;;;;;;;21.58;16.48;;;;;;;;;;5041538;28;20060;-74
2023/03/18 10:22:43;;;;;;;20.60;16.58;;;;;;;;;;5038424;28;20036;-74
2023/03/18 10:25:12;;;;;;;22.17;16.98;;;;;;;;;;5068436;28;20051;-73
2023/03/18 10:27:41;;;;;;;21.80;15.77;;;;;;;;;;5073450;28;20029;-74
2023/03/18 10:30:27;;;;;;;18.48;15.75;;;;;;;;;;5045806;28;20154;-73
2023/03/18 10:33:12;;;;;;;17.38;14.98;;;;;;;;;;5075181;28;20048;-73
2023/03/18 10:35:47;;;;;;;16.92;14.77;;;;;;;;;;5062921;28;20045;-74
2023/03/18 10:38:20;;;;;;;15.88;13.68;;;;;;;;;;5056947;28;20057;-74
2023/03/18 10:40:47;;;;;;;19.67;14.65;;;;;;;;;;5073275;28;20075;-73
2023/03/18 10:43:15;;;;;;;17.83;13.60;;;;;;;;;;5074487;28;20135;-74
2023/03/18 10:45:42;;;;;;;18.30;13.80;;;;;;;;;;5054151;28;20044;-73
2023/03/18 10:48:21;;;;;;;16.17;13.18;;;;;;;;;;5042246;28;20049;-73
2023/03/18 10:50:56;;;;;;;17.38;13.05;;;;;;;;;;5055069;28;20170;-74
2023/03/18 10:53:21;;;;;;;;;;;;;;;;;;5074397;28;20055;-74
2023/03/18 10:56:07;;;;;;;15.88;12.60;;;;;;;;;;5048064;28;19921;-74
2023/03/18 10:58:33;;;;;;;18.33;13.05;;;;;;;;;;5031919;28;20131;-74
2023/03/18 11:00:59;;;;;;;17.38;13.50;;;;;;;;;;5047477;28;20056;-73
2023/03/18 11:03:31;;;;;;;16.00;13.38;;;;;;;;;;5066729;28;20133;-73
2023/03/18 11:05:59;;;;;;;18.92;13.82;;;;;;;;;;5056414;28;20047;-73
2023/03/18 11:08:27;;;;;;;17.20;14.35;;;;;;;;;;5074261;28;20071;-73
2023/03/18 11:10:57;;;;;;;21.35;15.38;;;;;;;;;;5056296;28;20056;-73
2023/03/18 11:13:26;;;;;;;18.85;15.02;;;;;;;;;;5073213;28;20070;-74
2023/03/18 11:15:55;;;;;;;17.98;14.30;;;;;;;;;;5071803;28;20446;-73
2023/03/18 11:18:22;;;;;;;16.95;14.15;;;;;;;;;;5036314;28;20110;-74
2023/03/18 11:20:54;;;;;;;18.63;14.40;;;;;;;;;;5070806;28;20049;-73
2023/03/18 11:23:45;;;;;;;19.92;15.25;;;;;;;;;;5055055;28;20401;-73
2023/03/18 11:26:17;;;;;;;17.83;14.15;;;;;;;;;;5074493;28;20080;-74
2023/03/18 11:28:45;;;;;;;16.15;13.80;;;;;;;;;;5072267;28;20404;-74
2023/03/18 11:31:16;;;;;;;19.38;13.52;;;;;;;;;;5053295;28;20059;-74
2023/03/18 11:33:42;;;;;;;17.50;14.02;;;;;;;;;;5073671;28;20495;-74
2023/03/18 11:36:13;;;;;;;16.38;13.32;;;;;;;;;;5074190;28;20040;-74
2023/03/18 11:38:39;;;;;;;18.92;13.70;;;;;;;;;;5055614;28;20040;-74
2023/03/18 11:41:13;;;;;;;17.05;13.63;;;;;;;;;;5055804;28;20045;-74
2023/03/18 11:43:53;;;;;;;16.48;13.35;;;;;;;;;;5055594;28;20047;-74
2023/03/18 11:46:20;;;;;;;19.38;14.57;;;;;;;;;;5073912;28;20072;-74
2023/03/18 11:48:47;;;;;;;17.90;14.75;;;;;;;;;;5055574;28;20044;-74
2023/03/18 11:51:18;;;;;;;19.70;15.00;;;;;;;;;;5056120;28;20047;-74
2023/03/18 11:53:44;;;;;;;19.05;14.90;;;;;;;;;;5073709;28;20048;-74
2023/03/18 11:56:10;;;;;;;17.70;14.30;;;;;;;;;;5055545;28;20516;-74
2023/03/18 11:58:51;;;;;;;19.42;14.50;;;;;;;;;;5073180;28;20048;-74
2023/03/18 12:01:32;;;;;;;19.05;13.80;;;;;;;;;;5055493;28;20048;-74
2023/03/18 12:04:10;;;;;;;19.77;15.07;;;;;;;;;;5055043;28;20069;-74
2023/03/18 12:06:53;;;;;;;20.15;13.88;;;;;;;;;;5055426;28;20127;-74
2023/03/18 12:09:23;;;;;;;17.95;13.73;;;;;;;;;;5036804;28;20171;-74
2023/03/18 12:12:05;;;;;;;16.90;13.52;;;;;;;;;;5055450;28;20059;-74
2023/03/18 12:14:46;;;;;;;14.80;12.00;;;;;;;;;;5055144;28;20441;-74
2023/03/18 12:17:29;;;;;;;15.80;11.68;;;;;;;;;;5073267;28;20048;-74
2023/03/18 12:20:14;;;;;;;13.07;9.65;;;;;;;;;;5072977;28;20049;-74
2023/03/18 12:22:49;;;;;;;13.60;10.50;;;;;;;;;;5072913;28;20044;-72
2023/03/18 12:25:33;;;;;;;14.50;10.27;;;;;;;;;;5054963;28;20052;-72
2023/03/18 12:28:18;;;;;;;12.50;9.82;;;;;;;;;;5054914;28;20075;-74
2023/03/18 12:31:00;;;;;;;15.23;10.13;;;;;;;;;;5072868;28;20119;-74
2023/03/18 12:33:44;;;;;;;13.07;9.55;;;;;;;;;;5072149;28;20060;-74
2023/03/18 12:36:19;;;;;;;13.67;9.60;;;;;;;;;;5072626;28;20045;-74
2023/03/18 12:38:49;;;;;;;13.38;10.13;;;;;;;;;;5055034;28;20314;-74
2023/03/18 12:41:24;;;;;;;13.05;10.20;;;;;;;;;;5052642;28;20045;-74
2023/03/18 12:43:50;;;;;;;14.73;10.10;;;;;;;;;;5052365;28;20177;-74
2023/03/18 12:46:35;;;;;;;14.60;11.38;;;;;;;;;;5051882;28;20049;-74
2023/03/18 12:49:03;;;;;;;16.80;10.77;;;;;;;;;;5066510;28;20045;-74
2023/03/18 12:51:33;;;;;;;14.88;10.35;;;;;;;;;;5054289;28;20057;-74
2023/03/18 12:54:09;;;;;;;15.20;10.93;;;;;;;;;;5070571;28;20051;-74
2023/03/18 12:56:39;;;;;;;14.73;10.27;;;;;;;;;;5068121;28;20047;-74
2023/03/18 12:59:08;;;;;;;14.30;9.95;;;;;;;;;;5071311;28;20469;-74
2023/03/18 13:01:48;;;;;;;14.55;10.35;;;;;;;;;;5070951;28;20083;-74
2023/03/18 13:04:21;;;;;;;15.32;10.38;;;;;;;;;;5072324;28;20055;-74
2023/03/18 13:06:48;;;;;;;13.88;10.50;;;;;;;;;;5072742;28;20044;-73
2023/03/18 13:09:18;;;;;;;12.85;9.25;;;;;;;;;;5054030;28;20059;-74
2023/03/18 13:12:00;;;;;;;13.52;8.82;;;;;;;;;;5071905;28;20074;-74
2023/03/18 13:14:33;;;;;;;12.20;7.75;;;;;;;;;;5071808;28;20075;-74
2023/03/18 13:17:00;;;;;;;13.80;9.20;;;;;;;;;;5072633;28;20044;-74
2023/03/18 13:19:26;;;;;;;11.13;8.25;;;;;;;;;;5072059;28;20045;-73
2023/03/18 13:22:15;;;;;;;9.50;6.93;;;;;;;;;;5071554;28;20048;-74
2023/03/18 13:25:04;;;;;;;7.13;5.60;;;;;;;;;;5070359;28;20044;-74
2023/03/18 13:27:39;;;;;;;8.75;5.55;;;;;;;;;;5060506;28;20056;-74
2023/03/18 13:30:32;;;;;;;8.23;5.90;;;;;;;;;;5072117;28;20040;-73
2023/03/18 13:33:28;;;;;;;7.60;5.75;;;;;;;;;;5049138;28;20491;-74
2023/03/18 13:36:13;;;;;;;8.23;5.47;;;;;;;;;;4995615;28;20060;-73
2023/03/18 13:38:57;;;;;;;6.88;4.80;;;;;;;;;;5030862;28;20044;-73
2023/03/18 13:41:32;;;;;;;6.18;4.20;;;;;;;;;;5063867;28;20182;-75
2023/03/18 13:43:58;;;;;;;;;;;;;;;;;;5036440;28;20128;-74
2023/03/18 13:46:27;;;;;;;6.93;3.90;;;;;;;;;;5040949;28;19958;-74
2023/03/18 13:48:58;;;;;;;5.88;3.65;;;;;;;;;;5048812;28;20453;-74
2023/03/18 13:51:24;;;;;;;5.60;3.60;;;;;;;;;;5074112;28;20112;-74
2023/03/18 13:53:52;;;;;;;5.68;3.53;;;;;;;;;;5075553;28;20505;-74
2023/03/18 13:56:45;;;;;;;6.32;3.20;;;;;;;;;;5049064;28;20044;-75
2023/03/18 13:59:34;;;;;;;5.90;3.05;;;;;;;;;;5037747;28;20063;-75
2023/03/18 14:02:18;;;;;;;7.57;3.58;;;;;;;;;;5095027;28;20051;-74
2023/03/18 14:04:48;;;;;;;7.13;3.58;;;;;;;;;;5092645;28;20044;-75
2023/03/18 14:07:16;;;;;;;5.07;3.35;;;;;;;;;;5074012;28;20058;-75
2023/03/18 14:09:54;;;;;;;6.20;3.63;;;;;;;;;;5092315;28;20393;-74
2023/03/18 14:12:29;;;;;;;6.95;3.42;;;;;;;;;;5091768;28;20036;-75
2023/03/18 14:14:57;;;;;;;5.65;3.53;;;;;;;;;;5065945;28;20057;-75
2023/03/18 14:17:26;;;;;;;6.53;3.45;;;;;;;;;;5095053;28;20047;-74
2023/03/18 14:19:53;;;;;;;9.38;3.42;;;;;;;;;;5076481;28;20051;-74
2023/03/18 14:22:35;;;;;;;5.47;3.17;;;;;;;;;;5093936;28;20116;-74
2023/03/18 14:25:13;;;;;;;6.18;3.40;;;;;;;;;;5073151;28;20052;-74
2023/03/18 14:27:54;;;;;;;7.45;3.60;;;;;;;;;;5091252;28;20415;-74
2023/03/18 14:30:33;;;;;;;6.45;3.40;;;;;;;;;;5069967;28;20041;-74
2023/03/18 14:33:03;;;;;;;5.45;3.63;;;;;;;;;;5064991;28;20398;-74